Time;durP1;ratioP1;P1;durP2;ratioP2;P2;SDS_P1;SDS_P2;PMS_P1;PMS_P2;Temp;Humidity;BMP_temperature;BMP_pressure;BME280_temperature;BME280_humidity;BME280_pressure;Samples;Min_cycle;Max_cycle;Signal;HPM_P1;HPM_P2
2023/10/03 06:01:53;;;;;;;;;;;;;;;10.04;87.96;101014.02;109750;1271;22921;-46
2023/10/03 06:04:20;;;;;;;;;;;;;;;10.09;88.27;101017.05;109775;1264;22492;-51
2023/10/03 06:06:56;;;;;;;;;;;;;;;10.16;88.55;101017.33;109734;1256;22517;-45
2023/10/03 06:09:34;;;;;;;;;;;;;;;10.26;88.53;101014.69;109093;1273;22532;-51
2023/10/03 06:12:06;;;;;;;;;;;;;;;10.35;88.70;101019.34;109675;1274;23125;-45
2023/10/03 06:14:33;;;;;;;;;;;;;;;10.46;89.07;101023.84;109598;1273;22553;-49
2023/10/03 06:17:02;;;;;;;;;;;;;;;10.58;88.86;101027.98;109625;1271;23071;-45
2023/10/03 06:19:30;;;;;;;;;;;;;;;10.75;88.89;101029.74;109504;1273;22513;-50
2023/10/03 06:22:05;;;;;;;;;;;;;;;10.93;88.80;101034.12;109564;1273;23027;-46
2023/10/03 06:24:33;;;;;;;;;;;;;;;11.10;88.77;101030.80;109533;1270;22511;-44
2023/10/03 06:27:00;;;;;;;;;;;;;;;11.23;88.85;101030.58;109580;1273;23262;-52
2023/10/03 06:29:27;;;;;;;;;;;;;;;11.34;88.76;101030.33;109546;1276;22504;-49
2023/10/03 06:31:54;;;;;;;;;;;;;;;11.41;88.55;101033.34;109595;1277;22475;-51
2023/10/03 06:34:25;;;;;;;;;;;;;;;11.50;89.06;101032.20;109547;1273;22668;-50
2023/10/03 06:37:00;;;;;;;;;;;;;;;11.60;88.76;101036.64;109553;1277;23779;-51
2023/10/03 06:39:42;;;;;;;;;;;;;;;11.71;89.26;101035.67;109123;1272;22517;-45
2023/10/03 06:42:11;;;;;;;;;;;;;;;11.84;89.04;101035.45;109420;1275;22558;-44
2023/10/03 06:44:40;;;;;;;;;;;;;;;11.97;88.89;101033.78;109623;1272;23189;-51
2023/10/03 06:47:08;;;;;;;;;;;;;;;12.10;88.66;101035.26;109643;1270;22475;-51
2023/10/03 06:49:35;;;;;;;;;;;;;;;12.23;88.41;101032.17;109725;1264;22608;-51
2023/10/03 06:52:03;;;;;;;;;;;;;;;12.37;88.11;101034.86;109632;1272;22545;-50
2023/10/03 06:54:30;;;;;;;;;;;;;;;12.51;87.52;101036.32;109892;1270;22440;-52
2023/10/03 06:56:57;;;;;;;;;;;;;;;12.64;87.12;101032.34;109736;1268;23322;-51
2023/10/03 06:59:23;;;;;;;;;;;;;;;12.74;86.63;101033.95;109970;1264;22495;-45
2023/10/03 07:01:50;;;;;;;;;;;;;;;12.87;86.05;101031.88;109795;1272;22669;-50
2023/10/03 07:04:18;;;;;;;;;;;;;;;12.99;85.60;101033.13;109862;1272;22486;-45
2023/10/03 07:06:45;;;;;;;;;;;;;;;13.14;85.41;101028.08;109943;1278;23651;-51
2023/10/03 07:09:13;;;;;;;;;;;;;;;13.36;85.05;101024.79;109877;1273;22872;-51
2023/10/03 07:11:41;;;;;;;;;;;;;;;13.61;84.39;101028.48;109698;1272;22595;-52
2023/10/03 07:14:12;;;;;;;;;;;;;;;13.82;83.25;101027.03;109390;1275;22751;-51
2023/10/03 07:16:41;;;;;;;;;;;;;;;13.97;81.88;101024.89;109566;1273;151662;-48
2023/10/03 07:19:09;;;;;;;;;;;;;;;14.08;81.51;101029.06;109522;1264;23192;-46
2023/10/03 07:21:37;;;;;;;;;;;;;;;14.25;80.71;101028.50;109579;1270;22491;-51
2023/10/03 07:24:09;;;;;;;;;;;;;;;14.45;79.84;101031.94;109626;1274;22507;-49
2023/10/03 07:27:03;;;;;;;;;;;;;;;14.64;78.38;101033.63;109674;1273;23289;-45
2023/10/03 07:29:42;;;;;;;;;;;;;;;14.74;77.09;101032.36;109765;1271;22713;-44
2023/10/03 07:32:14;;;;;;;;;;;;;;;14.82;76.06;101034.42;109736;1276;22620;-45
2023/10/03 07:34:50;;;;;;;;;;;;;;;14.89;75.29;101037.19;109628;1277;22847;-52
2023/10/03 07:37:18;;;;;;;;;;;;;;;14.96;74.67;101038.20;109594;1273;24357;-50
2023/10/03 07:39:45;;;;;;;;;;;;;;;15.02;73.98;101035.17;109481;1273;22445;-51
2023/10/03 07:54:11;;;;;;;;;;;;;;;15.37;72.79;101030.17;109816;1278;22837;-49
2023/10/03 08:13:19;;;;;;;;;;;;;;;15.98;69.45;101029.29;109663;1274;22871;-44
2023/10/03 08:16:22;;;;;;;;;;;;;;;16.11;69.35;101029.33;109774;1273;23210;-44
2023/10/03 08:18:57;;;;;;;;;;;;;;;16.28;69.46;101027.20;109448;1273;22574;-46
2023/10/03 08:21:55;;;;;;;;;;;;;;;16.50;68.56;101027.26;109854;1273;22524;-49
2023/10/03 08:24:30;;;;;;;;;;;;;;;16.61;66.94;101024.84;109494;1274;22545;-50
2023/10/03 08:27:18;;;;;;;;;;;;;;;16.63;66.19;101025.50;109446;1274;22557;-45
2023/10/03 08:29:57;;;;;;;;;;;;;;;16.67;65.74;101020.70;109480;1273;23073;-50
2023/10/03 08:32:39;;;;;;;;;;;;;;;16.77;65.44;101018.48;109507;1271;23951;-49
2023/10/03 08:35:08;;;;;;;;;;;;;;;16.89;65.20;101013.91;109618;1267;22571;-45
2023/10/03 08:37:38;;;;;;;;;;;;;;;16.93;64.64;101012.45;109565;1272;23197;-49
2023/10/03 08:40:19;;;;;;;;;;;;;;;16.92;64.20;101011.55;109618;1272;22488;-45
2023/10/03 08:42:52;;;;;;;;;;;;;;;16.92;64.01;101005.92;109259;1271;22532;-50
2023/10/03 08:45:25;;;;;;;;;;;;;;;16.96;64.09;101000.05;109301;1273;22535;-50
2023/10/03 08:48:05;;;;;;;;;;;;;;;17.06;63.90;100999.02;109537;1275;23093;-50
2023/10/03 08:50:46;;;;;;;;;;;;;;;17.14;62.99;100995.38;109556;1270;23216;-48
2023/10/03 08:53:15;;;;;;;;;;;;;;;17.20;62.29;100993.69;109682;1272;22787;-51
2023/10/03 08:55:46;;;;;;;;;;;;;;;17.25;61.79;100992.90;109814;1272;22583;-44
2023/10/03 08:58:18;;;;;;;;;;;;;;;17.32;61.65;100990.49;109705;1274;23491;-50
2023/10/03 09:00:45;;;;;;;;;;;;;;;17.46;61.20;100983.55;109904;1270;22492;-45
2023/10/03 09:03:16;;;;;;;;;;;;;;;17.60;60.98;100985.96;109822;1273;22542;-50
2023/10/03 09:05:48;;;;;;;;;;;;;;;17.70;59.91;100984.19;109540;1273;22491;-50
2023/10/03 09:08:15;;;;;;;;;;;;;;;17.74;59.57;100979.36;109795;1260;23067;-45
2023/10/03 09:10:52;;;;;;;;;;;;;;;17.85;59.83;100976.88;109679;1277;23550;-45
2023/10/03 09:17:25;;;;;;;;;;;;;;;18.04;58.29;100973.51;109648;1270;22447;-44
2023/10/03 09:25:08;;;;;;;;;;;;;;;18.27;57.59;100971.44;109604;1273;22454;-51
2023/10/03 09:28:36;;;;;;;;;;;;;;;18.50;57.31;100970.08;109591;1271;23561;-47
2023/10/03 09:34:58;;;;;;;;;;;;;;;18.72;55.90;100964.48;109740;1267;22845;-45
2023/10/03 09:38:25;;;;;;;;;;;;;;;18.56;54.80;100972.58;109820;1273;22418;-45
2023/10/03 09:40:52;;;;;;;;;;;;;;;18.43;55.35;100971.10;109760;1273;23131;-44
2023/10/03 09:43:19;;;;;;;;;;;;;;;18.39;55.87;100972.61;109980;1273;22522;-44
2023/10/03 09:45:47;;;;;;;;;;;;;;;18.45;55.86;100971.41;110012;1260;23277;-45
2023/10/03 09:48:13;;;;;;;;;;;;;;;18.46;54.55;100971.22;109830;1256;23461;-44
2023/10/03 09:50:51;;;;;;;;;;;;;;;18.36;53.87;100970.20;109870;1269;23298;-45
2023/10/03 09:53:18;;;;;;;;;;;;;;;18.31;54.22;100969.93;109852;1273;22487;-51
2023/10/03 09:55:47;;;;;;;;;;;;;;;18.35;54.38;100967.91;109999;1272;22467;-51
2023/10/03 09:58:21;;;;;;;;;;;;;;;18.48;54.08;100969.05;109774;1272;23414;-45
2023/10/03 10:00:54;;;;;;;;;;;;;;;18.65;53.15;100968.33;110018;1269;22524;-45
2023/10/03 10:03:26;;;;;;;;;;;;;;;18.74;52.94;100966.90;109722;1275;22554;-46
2023/10/03 10:05:59;;;;;;;;;;;;;;;18.93;52.66;100959.39;109779;1271;22548;-46
2023/10/03 10:08:34;;;;;;;;;;;;;;;19.25;51.98;100949.94;109595;1273;23202;-49
2023/10/03 10:11:07;;;;;;;;;;;;;;;19.60;50.94;100949.92;109743;1272;22948;-46
2023/10/03 10:14:02;;;;;;;;;;;;;;;19.95;50.12;100947.21;109412;1273;22540;-45
2023/10/03 10:16:35;;;;;;;;;;;;;;;20.35;48.53;100946.55;109644;1265;23125;-46
2023/10/03 10:19:03;;;;;;;;;;;;;;;20.70;48.17;100941.60;109881;1275;22561;-44
2023/10/03 10:21:32;;;;;;;;;;;;;;;21.07;47.07;100938.80;109804;1271;23196;-51
2023/10/03 10:24:28;;;;;;;;;;;;;;;21.29;46.03;100938.27;109850;1268;22527;-51
2023/10/03 10:27:02;;;;;;;;;;;;;;;21.36;45.56;100937.34;109851;1272;22479;-51
2023/10/03 10:29:34;;;;;;;;;;;;;;;21.40;45.27;100935.23;109739;1272;23522;-48
2023/10/03 10:32:17;;;;;;;;;;;;;;;21.57;44.93;100935.54;109653;1269;22501;-52
2023/10/03 10:35:01;;;;;;;;;;;;;;;21.81;44.00;100928.65;109523;1273;22945;-51
2023/10/03 10:37:49;;;;;;;;;;;;;;;22.20;42.69;100925.05;109733;1273;22626;-50
2023/10/03 10:40:23;;;;;;;;;;;;;;;22.81;42.14;100916.98;109872;1273;22415;-47
2023/10/03 10:43:04;;;;;;;;;;;;;;;23.35;40.79;100922.39;109534;1273;22884;-50
2023/10/03 10:45:41;;;;;;;;;;;;;;;23.66;39.88;100922.45;109663;1270;23323;-45
2023/10/03 10:48:27;;;;;;;;;;;;;;;23.72;39.10;100915.24;109906;1272;22602;-45
2023/10/03 10:51:07;;;;;;;;;;;;;;;23.43;39.09;100917.55;109794;1269;22436;-44
2023/10/03 10:53:43;;;;;;;;;;;;;;;23.12;39.75;100915.01;109995;1272;22459;-51
2023/10/03 10:56:10;;;;;;;;;;;;;;;23.20;39.87;100910.74;109878;1264;23484;-52
2023/10/03 10:58:50;;;;;;;;;;;;;;;23.58;39.37;100903.57;109535;1270;22566;-46
2023/10/03 11:01:20;;;;;;;;;;;;;;;24.02;38.65;100896.79;109809;1272;22432;-51
2023/10/03 11:03:47;;;;;;;;;;;;;;;24.09;38.59;100897.54;109638;1270;22484;-45
2023/10/03 11:06:15;;;;;;;;;;;;;;;23.96;38.65;100895.64;109586;1259;23266;-50
2023/10/03 11:08:43;;;;;;;;;;;;;;;23.51;39.05;100895.88;109803;1272;22437;-51
2023/10/03 11:11:09;;;;;;;;;;;;;;;23.01;39.49;100895.02;109882;1270;23160;-51
2023/10/03 11:13:49;;;;;;;;;;;;;;;22.59;40.19;100894.05;109849;1274;22447;-51
2023/10/03 11:16:26;;;;;;;;;;;;;;;22.16;40.86;100895.74;109842;1262;23240;-45
2023/10/03 11:18:54;;;;;;;;;;;;;;;21.82;41.36;100892.02;109665;1273;22573;-45
2023/10/03 11:21:22;;;;;;;;;;;;;;;21.59;41.76;100891.09;109859;1272;22621;-45
2023/10/03 11:24:08;;;;;;;;;;;;;;;21.39;42.20;100890.73;109754;1275;23215;-45
2023/10/03 11:26:48;;;;;;;;;;;;;;;21.28;42.80;100887.55;109697;1274;22456;-51
2023/10/03 11:29:15;;;;;;;;;;;;;;;21.34;43.03;100885.07;109868;1272;22452;-51
2023/10/03 11:31:42;;;;;;;;;;;;;;;21.29;43.32;100885.39;109800;1268;22955;-45
2023/10/03 11:34:09;;;;;;;;;;;;;;;21.17;43.09;100885.61;109670;1276;23175;-45
2023/10/03 11:36:39;;;;;;;;;;;;;;;20.96;43.37;100882.06;109641;1273;23179;-52
2023/10/03 11:39:08;;;;;;;;;;;;;;;20.82;43.65;100878.49;109899;1265;23690;-52
2023/10/03 11:41:37;;;;;;;;;;;;;;;20.74;43.78;100873.94;109839;1257;22446;-45
2023/10/03 11:44:32;;;;;;;;;;;;;;;20.74;43.99;100876.24;109740;1272;22505;-44
2023/10/03 11:47:00;;;;;;;;;;;;;;;20.76;43.64;100879.23;109922;1272;23508;-47
2023/10/03 11:49:27;;;;;;;;;;;;;;;20.72;43.07;100875.61;109822;1260;23025;-48
2023/10/03 11:51:56;;;;;;;;;;;;;;;20.73;42.80;100869.73;109911;1267;23751;-44
2023/10/03 11:54:24;;;;;;;;;;;;;;;20.73;42.69;100872.36;109631;1272;23421;-46
2023/10/03 11:56:52;;;;;;;;;;;;;;;20.73;42.68;100869.56;109912;1260;22418;-51
2023/10/03 11:59:19;;;;;;;;;;;;;;;20.65;42.86;100866.98;109651;1264;22474;-50
2023/10/03 12:01:48;;;;;;;;;;;;;;;20.60;42.56;100866.61;109716;1271;22485;-50
2023/10/03 12:04:15;;;;;;;;;;;;;;;20.61;42.44;100861.98;109722;1270;23622;-44
2023/10/03 12:06:42;;;;;;;;;;;;;;;20.66;41.94;100859.14;109785;1272;22444;-47
2023/10/03 12:09:10;;;;;;;;;;;;;;;20.73;41.94;100857.86;109866;1267;23221;-45
2023/10/03 12:11:44;;;;;;;;;;;;;;;20.69;42.20;100859.05;109556;1273;22454;-52
2023/10/03 12:14:10;;;;;;;;;;;;;;;20.58;42.59;100860.46;109833;1274;22448;-51
2023/10/03 12:16:40;;;;;;;;;;;;;;;20.57;42.19;100858.74;109850;1278;22436;-52
2023/10/03 12:19:07;;;;;;;;;;;;;;;20.54;41.55;100856.36;109788;1275;22494;-46
2023/10/03 12:21:34;;;;;;;;;;;;;;;20.46;41.72;100855.70;109839;1269;22512;-45
2023/10/03 12:24:01;;;;;;;;;;;;;;;20.42;41.99;100857.61;109840;1267;22451;-51
2023/10/03 12:26:28;;;;;;;;;;;;;;;20.41;42.09;100857.80;109875;1270;24127;-50
2023/10/03 12:28:56;;;;;;;;;;;;;;;20.43;42.44;100855.26;109916;1269;23147;-50
2023/10/03 12:31:27;;;;;;;;;;;;;;;20.52;42.41;100849.67;109842;1278;22526;-45
2023/10/03 12:33:55;;;;;;;;;;;;;;;20.65;42.36;100842.53;109974;1267;22529;-50
2023/10/03 12:36:22;;;;;;;;;;;;;;;20.73;42.31;100845.63;109976;1278;22439;-51
2023/10/03 12:38:49;;;;;;;;;;;;;;;20.67;42.26;100840.33;109952;1272;22436;-45
2023/10/03 12:41:15;;;;;;;;;;;;;;;20.56;42.26;100842.98;109976;1272;22459;-52
2023/10/03 12:43:46;;;;;;;;;;;;;;;20.52;42.41;100843.48;109980;1272;22573;-50
2023/10/03 12:46:13;;;;;;;;;;;;;;;20.55;42.32;100847.29;110033;1269;23288;-45
2023/10/03 12:48:40;;;;;;;;;;;;;;;20.60;42.13;100843.23;110008;1275;22532;-45
2023/10/03 12:51:08;;;;;;;;;;;;;;;20.66;42.08;100833.80;110024;1268;23314;-46
2023/10/03 12:53:37;;;;;;;;;;;;;;;20.77;41.87;100834.49;110036;1268;22459;-45
2023/10/03 12:56:08;;;;;;;;;;;;;;;20.78;42.11;100832.54;110113;1267;22401;-45
2023/10/03 12:58:38;;;;;;;;;;;;;;;20.79;42.04;100830.20;110117;1278;22426;-51
2023/10/03 13:01:05;;;;;;;;;;;;;;;20.85;41.56;100829.44;110140;1278;22445;-46
2023/10/03 13:03:32;;;;;;;;;;;;;;;20.90;41.41;100827.30;110131;1270;22446;-52
2023/10/03 13:05:59;;;;;;;;;;;;;;;20.97;41.30;100822.48;110121;1278;22421;-50
2023/10/03 13:08:27;;;;;;;;;;;;;;;21.03;41.25;100823.17;110017;1271;22424;-51
2023/10/03 13:11:05;;;;;;;;;;;;;;;20.98;41.55;100830.05;110104;1272;23284;-51
2023/10/03 13:13:32;;;;;;;;;;;;;;;20.94;41.43;100834.45;110139;1262;22571;-46
2023/10/03 13:15:59;;;;;;;;;;;;;;;20.89;41.20;100826.67;110081;1278;22423;-51
2023/10/03 13:18:25;;;;;;;;;;;;;;;20.82;41.47;100821.03;110075;1269;22445;-51
2023/10/03 13:20:53;;;;;;;;;;;;;;;20.84;41.63;100822.23;110097;1278;22427;-51
2023/10/03 13:23:19;;;;;;;;;;;;;;;20.89;41.59;100826.12;110139;1263;22513;-44
2023/10/03 13:25:46;;;;;;;;;;;;;;;20.90;41.65;100829.10;110138;1278;22405;-50
2023/10/03 13:28:14;;;;;;;;;;;;;;;21.04;41.32;100827.17;110117;1267;22513;-50
2023/10/03 13:30:40;;;;;;;;;;;;;;;21.22;40.80;100819.64;110074;1268;23128;-52
2023/10/03 13:33:07;;;;;;;;;;;;;;;21.26;40.60;100815.94;110118;1268;22499;-45
2023/10/03 13:35:34;;;;;;;;;;;;;;;21.29;40.54;100814.82;110095;1278;22429;-45
2023/10/03 13:38:03;;;;;;;;;;;;;;;21.27;40.24;100812.73;110098;1266;22454;-45
2023/10/03 13:40:30;;;;;;;;;;;;;;;21.13;40.04;100809.67;110110;1278;22429;-51
2023/10/03 13:42:57;;;;;;;;;;;;;;;20.98;40.46;100811.27;110063;1269;22467;-44
2023/10/03 13:45:24;;;;;;;;;;;;;;;20.87;40.52;100809.18;110099;1269;23271;-50
2023/10/03 13:47:51;;;;;;;;;;;;;;;20.72;40.57;100811.64;110073;1278;22430;-44
2023/10/03 13:50:17;;;;;;;;;;;;;;;20.59;41.11;100805.15;110031;1268;22485;-44
2023/10/03 13:52:46;;;;;;;;;;;;;;;20.55;41.50;100805.27;110105;1267;22449;-44
2023/10/03 13:55:15;;;;;;;;;;;;;;;20.63;41.25;100804.13;110112;1278;22425;-50
2023/10/03 13:57:44;;;;;;;;;;;;;;;20.63;41.28;100805.38;110172;1278;22593;-44
2023/10/03 14:00:15;;;;;;;;;;;;;;;20.55;41.54;100803.16;110109;1278;22538;-44
2023/10/03 14:02:46;;;;;;;;;;;;;;;20.53;41.31;100804.81;110068;1277;23278;-50
2023/10/03 14:05:14;;;;;;;;;;;;;;;20.63;41.24;100803.09;110071;1278;22521;-44
2023/10/03 14:07:40;;;;;;;;;;;;;;;20.78;41.22;100800.80;110028;1268;23027;-44
2023/10/03 14:10:09;;;;;;;;;;;;;;;21.11;40.78;100801.22;110010;1278;22423;-44
2023/10/03 14:12:36;;;;;;;;;;;;;;;21.37;39.85;100801.38;110023;1272;22441;-50
2023/10/03 14:15:03;;;;;;;;;;;;;;;21.38;39.91;100804.73;110040;1278;23681;-51
